sensor_id;sensor_type;location;lat;lon;timestamp;P1;durP1;ratioP1;P2;durP2;ratioP2
14874;SDS011;7529;48.170;17.138;2022-12-17T00:00:32;52.58;;;47.53;;
14874;SDS011;7529;48.170;17.138;2022-12-17T00:05:02;51.47;;;46.75;;
14874;SDS011;7529;48.170;17.138;2022-12-17T00:09:32;48.00;;;42.90;;
14874;SDS011;7529;48.170;17.138;2022-12-17T00:14:03;46.15;;;41.70;;
14874;SDS011;7529;48.170;17.138;2022-12-17T00:18:32;51.08;;;45.88;;
14874;SDS011;7529;48.170;17.138;2022-12-17T00:23:03;46.92;;;42.15;;
14874;SDS011;7529;48.170;17.138;2022-12-17T00:27:34;49.88;;;45.08;;
14874;SDS011;7529;48.170;17.138;2022-12-17T00:32:04;54.05;;;48.50;;
14874;SDS011;7529;48.170;17.138;2022-12-17T00:36:34;51.78;;;46.97;;
14874;SDS011;7529;48.170;17.138;2022-12-17T00:41:04;55.65;;;50.38;;
14874;SDS011;7529;48.170;17.138;2022-12-17T00:45:34;56.60;;;51.72;;
14874;SDS011;7529;48.170;17.138;2022-12-17T00:50:04;59.63;;;54.33;;
14874;SDS011;7529;48.170;17.138;2022-12-17T00:54:35;57.45;;;51.72;;
14874;SDS011;7529;48.170;17.138;2022-12-17T00:59:05;58.55;;;52.83;;
14874;SDS011;7529;48.170;17.138;2022-12-17T01:03:36;52.72;;;47.67;;
14874;SDS011;7529;48.170;17.138;2022-12-17T01:08:11;57.90;;;52.25;;
14874;SDS011;7529;48.170;17.138;2022-12-17T01:12:42;51.72;;;46.92;;
14874;SDS011;7529;48.170;17.138;2022-12-17T01:17:12;57.72;;;51.95;;
14874;SDS011;7529;48.170;17.138;2022-12-17T01:21:43;52.88;;;47.67;;
14874;SDS011;7529;48.170;17.138;2022-12-17T01:26:13;56.88;;;50.85;;
14874;SDS011;7529;48.170;17.138;2022-12-17T01:30:44;54.65;;;49.70;;
14874;SDS011;7529;48.170;17.138;2022-12-17T01:35:16;52.92;;;48.40;;
14874;SDS011;7529;48.170;17.138;2022-12-17T01:39:45;55.05;;;50.05;;
14874;SDS011;7529;48.170;17.138;2022-12-17T01:49:24;47.55;;;42.97;;
14874;SDS011;7529;48.170;17.138;2022-12-17T01:53:54;47.53;;;42.92;;
14874;SDS011;7529;48.170;17.138;2022-12-17T01:58:24;47.33;;;42.90;;
14874;SDS011;7529;48.170;17.138;2022-12-17T02:02:54;47.53;;;43.38;;
14874;SDS011;7529;48.170;17.138;2022-12-17T02:07:44;47.65;;;42.75;;
14874;SDS011;7529;48.170;17.138;2022-12-17T02:12:39;50.60;;;45.47;;
14874;SDS011;7529;48.170;17.138;2022-12-17T02:17:14;48.90;;;43.95;;
14874;SDS011;7529;48.170;17.138;2022-12-17T02:21:48;53.97;;;49.15;;
14874;SDS011;7529;48.170;17.138;2022-12-17T02:31:22;47.42;;;42.75;;
14874;SDS011;7529;48.170;17.138;2022-12-17T02:35:54;47.65;;;43.20;;
14874;SDS011;7529;48.170;17.138;2022-12-17T02:40:28;45.65;;;41.13;;
14874;SDS011;7529;48.170;17.138;2022-12-17T02:44:58;46.92;;;41.70;;
14874;SDS011;7529;48.170;17.138;2022-12-17T02:49:28;52.03;;;47.05;;
14874;SDS011;7529;48.170;17.138;2022-12-17T02:54:00;52.83;;;47.17;;
14874;SDS011;7529;48.170;17.138;2022-12-17T02:58:31;52.33;;;47.22;;
14874;SDS011;7529;48.170;17.138;2022-12-17T03:03:02;53.63;;;48.53;;
14874;SDS011;7529;48.170;17.138;2022-12-17T03:07:32;58.55;;;52.60;;
14874;SDS011;7529;48.170;17.138;2022-12-17T03:12:02;63.17;;;56.97;;
14874;SDS011;7529;48.170;17.138;2022-12-17T03:16:32;64.95;;;59.00;;
14874;SDS011;7529;48.170;17.138;2022-12-17T03:21:02;67.28;;;60.88;;
14874;SDS011;7529;48.170;17.138;2022-12-17T03:25:33;74.45;;;67.68;;
14874;SDS011;7529;48.170;17.138;2022-12-17T03:30:03;70.60;;;64.22;;
14874;SDS011;7529;48.170;17.138;2022-12-17T03:34:34;77.68;;;70.75;;
14874;SDS011;7529;48.170;17.138;2022-12-17T03:39:04;82.95;;;75.28;;
14874;SDS011;7529;48.170;17.138;2022-12-17T03:43:34;90.57;;;82.63;;
14874;SDS011;7529;48.170;17.138;2022-12-17T03:48:08;88.45;;;80.90;;
14874;SDS011;7529;48.170;17.138;2022-12-17T03:52:39;104.93;;;96.32;;
14874;SDS011;7529;48.170;17.138;2022-12-17T03:57:09;102.68;;;94.55;;
14874;SDS011;7529;48.170;17.138;2022-12-17T04:01:39;91.72;;;84.50;;
14874;SDS011;7529;48.170;17.138;2022-12-17T04:06:09;95.82;;;88.15;;
14874;SDS011;7529;48.170;17.138;2022-12-17T04:10:39;99.88;;;92.13;;
14874;SDS011;7529;48.170;17.138;2022-12-17T04:15:11;90.40;;;83.20;;
14874;SDS011;7529;48.170;17.138;2022-12-17T04:19:42;85.03;;;78.03;;
14874;SDS011;7529;48.170;17.138;2022-12-17T04:24:12;99.82;;;92.10;;
14874;SDS011;7529;48.170;17.138;2022-12-17T04:28:42;115.32;;;106.93;;
14874;SDS011;7529;48.170;17.138;2022-12-17T04:33:12;88.68;;;81.00;;
14874;SDS011;7529;48.170;17.138;2022-12-17T04:37:42;207.20;;;192.95;;
14874;SDS011;7529;48.170;17.138;2022-12-17T04:42:12;82.97;;;76.63;;
14874;SDS011;7529;48.170;17.138;2022-12-17T04:46:42;91.78;;;85.13;;
14874;SDS011;7529;48.170;17.138;2022-12-17T04:51:29;88.70;;;81.70;;
14874;SDS011;7529;48.170;17.138;2022-12-17T04:55:59;92.10;;;85.07;;
14874;SDS011;7529;48.170;17.138;2022-12-17T05:00:52;81.40;;;75.18;;
14874;SDS011;7529;48.170;17.138;2022-12-17T05:05:23;92.63;;;84.88;;
14874;SDS011;7529;48.170;17.138;2022-12-17T05:09:52;87.32;;;80.10;;
14874;SDS011;7529;48.170;17.138;2022-12-17T05:14:22;85.05;;;78.43;;
14874;SDS011;7529;48.170;17.138;2022-12-17T05:18:52;82.50;;;75.72;;
14874;SDS011;7529;48.170;17.138;2022-12-17T05:23:22;97.00;;;89.32;;
14874;SDS011;7529;48.170;17.138;2022-12-17T05:27:52;84.60;;;78.35;;
14874;SDS011;7529;48.170;17.138;2022-12-17T05:32:22;87.53;;;80.25;;
14874;SDS011;7529;48.170;17.138;2022-12-17T05:36:53;83.32;;;76.68;;
14874;SDS011;7529;48.170;17.138;2022-12-17T05:41:23;94.90;;;87.70;;
14874;SDS011;7529;48.170;17.138;2022-12-17T05:45:53;98.78;;;90.90;;
14874;SDS011;7529;48.170;17.138;2022-12-17T05:50:23;158.95;;;148.35;;
14874;SDS011;7529;48.170;17.138;2022-12-17T05:54:53;92.97;;;85.97;;
14874;SDS011;7529;48.170;17.138;2022-12-17T05:59:24;94.75;;;87.90;;
14874;SDS011;7529;48.170;17.138;2022-12-17T06:03:54;87.85;;;80.88;;
14874;SDS011;7529;48.170;17.138;2022-12-17T06:08:24;98.10;;;90.82;;
14874;SDS011;7529;48.170;17.138;2022-12-17T06:12:54;97.82;;;89.88;;
14874;SDS011;7529;48.170;17.138;2022-12-17T06:17:25;85.00;;;78.60;;
14874;SDS011;7529;48.170;17.138;2022-12-17T06:21:55;78.07;;;71.82;;
14874;SDS011;7529;48.170;17.138;2022-12-17T06:26:25;85.80;;;79.10;;
14874;SDS011;7529;48.170;17.138;2022-12-17T06:30:55;89.97;;;83.03;;
14874;SDS011;7529;48.170;17.138;2022-12-17T06:35:25;64.85;;;59.15;;
14874;SDS011;7529;48.170;17.138;2022-12-17T06:40:02;73.00;;;66.05;;
14874;SDS011;7529;48.170;17.138;2022-12-17T06:44:33;75.25;;;68.85;;
14874;SDS011;7529;48.170;17.138;2022-12-17T06:49:04;70.15;;;64.28;;
14874;SDS011;7529;48.170;17.138;2022-12-17T06:53:34;69.65;;;63.90;;
14874;SDS011;7529;48.170;17.138;2022-12-17T06:58:05;72.13;;;65.57;;
14874;SDS011;7529;48.170;17.138;2022-12-17T07:02:35;67.18;;;60.05;;
14874;SDS011;7529;48.170;17.138;2022-12-17T07:07:05;68.95;;;62.42;;
14874;SDS011;7529;48.170;17.138;2022-12-17T07:11:35;60.55;;;54.17;;
14874;SDS011;7529;48.170;17.138;2022-12-17T07:16:05;66.65;;;60.67;;
14874;SDS011;7529;48.170;17.138;2022-12-17T07:20:35;58.38;;;52.92;;
14874;SDS011;7529;48.170;17.138;2022-12-17T07:25:05;64.18;;;57.85;;
14874;SDS011;7529;48.170;17.138;2022-12-17T07:29:35;60.65;;;54.05;;
14874;SDS011;7529;48.170;17.138;2022-12-17T07:34:05;52.15;;;46.95;;
14874;SDS011;7529;48.170;17.138;2022-12-17T07:38:35;61.17;;;54.50;;
14874;SDS011;7529;48.170;17.138;2022-12-17T07:43:11;76.38;;;69.35;;
14874;SDS011;7529;48.170;17.138;2022-12-17T07:47:42;58.33;;;52.55;;
14874;SDS011;7529;48.170;17.138;2022-12-17T07:52:18;66.95;;;60.33;;
14874;SDS011;7529;48.170;17.138;2022-12-17T07:56:59;63.38;;;56.58;;
14874;SDS011;7529;48.170;17.138;2022-12-17T08:01:29;56.97;;;50.55;;
14874;SDS011;7529;48.170;17.138;2022-12-17T08:05:59;57.50;;;51.75;;
14874;SDS011;7529;48.170;17.138;2022-12-17T08:10:30;63.08;;;57.40;;
14874;SDS011;7529;48.170;17.138;2022-12-17T08:15:00;56.10;;;50.17;;
14874;SDS011;7529;48.170;17.138;2022-12-17T08:19:30;51.63;;;44.55;;
14874;SDS011;7529;48.170;17.138;2022-12-17T08:24:00;56.08;;;49.53;;
14874;SDS011;7529;48.170;17.138;2022-12-17T08:28:31;52.70;;;46.90;;
14874;SDS011;7529;48.170;17.138;2022-12-17T08:33:03;60.85;;;50.30;;
14874;SDS011;7529;48.170;17.138;2022-12-17T08:37:34;51.72;;;45.13;;
14874;SDS011;7529;48.170;17.138;2022-12-17T08:42:04;51.63;;;43.70;;
14874;SDS011;7529;48.170;17.138;2022-12-17T08:46:34;53.15;;;42.17;;
14874;SDS011;7529;48.170;17.138;2022-12-17T08:51:04;48.38;;;42.25;;
14874;SDS011;7529;48.170;17.138;2022-12-17T08:55:34;52.70;;;45.78;;
14874;SDS011;7529;48.170;17.138;2022-12-17T09:00:04;48.00;;;41.38;;
14874;SDS011;7529;48.170;17.138;2022-12-17T09:04:35;49.70;;;44.17;;
14874;SDS011;7529;48.170;17.138;2022-12-17T09:09:05;51.20;;;42.17;;
14874;SDS011;7529;48.170;17.138;2022-12-17T09:13:35;46.15;;;41.30;;
14874;SDS011;7529;48.170;17.138;2022-12-17T09:18:05;55.05;;;48.00;;
14874;SDS011;7529;48.170;17.138;2022-12-17T09:22:35;47.65;;;39.65;;
14874;SDS011;7529;48.170;17.138;2022-12-17T09:27:05;48.40;;;43.30;;
14874;SDS011;7529;48.170;17.138;2022-12-17T09:31:35;46.83;;;41.17;;
14874;SDS011;7529;48.170;17.138;2022-12-17T09:36:05;46.97;;;40.05;;
14874;SDS011;7529;48.170;17.138;2022-12-17T09:40:35;45.20;;;38.42;;
14874;SDS011;7529;48.170;17.138;2022-12-17T09:49:37;45.40;;;40.75;;
14874;SDS011;7529;48.170;17.138;2022-12-17T09:54:18;41.75;;;37.25;;
14874;SDS011;7529;48.170;17.138;2022-12-17T09:58:58;43.63;;;38.95;;
14874;SDS011;7529;48.170;17.138;2022-12-17T10:03:28;43.10;;;38.45;;
14874;SDS011;7529;48.170;17.138;2022-12-17T10:07:58;42.35;;;37.58;;
14874;SDS011;7529;48.170;17.138;2022-12-17T10:12:29;28.63;;;26.05;;
14874;SDS011;7529;48.170;17.138;2022-12-17T10:16:59;31.25;;;26.58;;
14874;SDS011;7529;48.170;17.138;2022-12-17T10:21:30;27.08;;;22.13;;
14874;SDS011;7529;48.170;17.138;2022-12-17T10:26:00;29.48;;;26.50;;
14874;SDS011;7529;48.170;17.138;2022-12-17T10:30:35;39.30;;;35.17;;
14874;SDS011;7529;48.170;17.138;2022-12-17T10:35:22;25.58;;;23.58;;
14874;SDS011;7529;48.170;17.138;2022-12-17T10:40:23;32.60;;;29.50;;
14874;SDS011;7529;48.170;17.138;2022-12-17T10:44:55;41.67;;;36.83;;
14874;SDS011;7529;48.170;17.138;2022-12-17T10:49:25;29.80;;;27.20;;
14874;SDS011;7529;48.170;17.138;2022-12-17T10:54:02;28.65;;;26.13;;
14874;SDS011;7529;48.170;17.138;2022-12-17T10:58:45;36.53;;;32.67;;
14874;SDS011;7529;48.170;17.138;2022-12-17T11:03:28;42.35;;;37.92;;
14874;SDS011;7529;48.170;17.138;2022-12-17T11:08:07;44.22;;;36.10;;
14874;SDS011;7529;48.170;17.138;2022-12-17T11:17:13;38.95;;;34.80;;
14874;SDS011;7529;48.170;17.138;2022-12-17T11:21:48;41.22;;;37.22;;
14874;SDS011;7529;48.170;17.138;2022-12-17T11:26:19;42.20;;;36.65;;
14874;SDS011;7529;48.170;17.138;2022-12-17T11:30:53;41.75;;;37.00;;
14874;SDS011;7529;48.170;17.138;2022-12-17T11:45:05;50.78;;;46.08;;
14874;SDS011;7529;48.170;17.138;2022-12-17T11:49:49;43.78;;;37.00;;
14874;SDS011;7529;48.170;17.138;2022-12-17T11:54:33;39.53;;;34.85;;
14874;SDS011;7529;48.170;17.138;2022-12-17T12:08:25;35.35;;;31.80;;
14874;SDS011;7529;48.170;17.138;2022-12-17T12:13:03;38.35;;;34.55;;
14874;SDS011;7529;48.170;17.138;2022-12-17T12:17:42;36.63;;;32.72;;
14874;SDS011;7529;48.170;17.138;2022-12-17T12:22:30;39.85;;;35.67;;
14874;SDS011;7529;48.170;17.138;2022-12-17T12:36:49;39.40;;;33.58;;
14874;SDS011;7529;48.170;17.138;2022-12-17T12:41:22;55.67;;;50.17;;
14874;SDS011;7529;48.170;17.138;2022-12-17T12:55:17;32.45;;;29.08;;
14874;SDS011;7529;48.170;17.138;2022-12-17T12:59:48;34.10;;;30.55;;
14874;SDS011;7529;48.170;17.138;2022-12-17T13:13:29;37.17;;;33.60;;
14874;SDS011;7529;48.170;17.138;2022-12-17T13:17:57;36.03;;;32.35;;
14874;SDS011;7529;48.170;17.138;2022-12-17T13:22:26;37.20;;;33.55;;
14874;SDS011;7529;48.170;17.138;2022-12-17T13:30:58;33.78;;;30.40;;
14874;SDS011;7529;48.170;17.138;2022-12-17T13:35:31;43.85;;;39.47;;
14874;SDS011;7529;48.170;17.138;2022-12-17T13:44:27;37.85;;;34.25;;
14874;SDS011;7529;48.170;17.138;2022-12-17T13:48:50;34.55;;;31.17;;
14874;SDS011;7529;48.170;17.138;2022-12-17T13:53:10;35.78;;;32.25;;
14874;SDS011;7529;48.170;17.138;2022-12-17T13:57:24;40.25;;;36.00;;
14874;SDS011;7529;48.170;17.138;2022-12-17T14:01:46;49.67;;;45.25;;
14874;SDS011;7529;48.170;17.138;2022-12-17T14:05:59;37.10;;;33.33;;
14874;SDS011;7529;48.170;17.138;2022-12-17T14:10:14;39.60;;;36.03;;
14874;SDS011;7529;48.170;17.138;2022-12-17T14:14:33;46.70;;;42.40;;
14874;SDS011;7529;48.170;17.138;2022-12-17T14:18:58;36.15;;;31.63;;
14874;SDS011;7529;48.170;17.138;2022-12-17T14:23:20;39.63;;;35.72;;
14874;SDS011;7529;48.170;17.138;2022-12-17T14:27:50;39.17;;;35.63;;
14874;SDS011;7529;48.170;17.138;2022-12-17T14:32:19;64.40;;;59.38;;
14874;SDS011;7529;48.170;17.138;2022-12-17T14:36:34;40.53;;;36.83;;
14874;SDS011;7529;48.170;17.138;2022-12-17T14:40:47;42.05;;;38.55;;
14874;SDS011;7529;48.170;17.138;2022-12-17T14:45:03;38.28;;;34.85;;
14874;SDS011;7529;48.170;17.138;2022-12-17T14:49:27;39.17;;;35.40;;
14874;SDS011;7529;48.170;17.138;2022-12-17T14:53:38;45.08;;;40.75;;
14874;SDS011;7529;48.170;17.138;2022-12-17T14:57:51;37.78;;;34.38;;
14874;SDS011;7529;48.170;17.138;2022-12-17T15:02:13;36.60;;;32.47;;
14874;SDS011;7529;48.170;17.138;2022-12-17T15:06:48;39.05;;;35.95;;
14874;SDS011;7529;48.170;17.138;2022-12-17T15:11:00;37.42;;;33.67;;
14874;SDS011;7529;48.170;17.138;2022-12-17T15:15:12;47.13;;;43.47;;
14874;SDS011;7529;48.170;17.138;2022-12-17T15:19:25;42.58;;;38.97;;
14874;SDS011;7529;48.170;17.138;2022-12-17T15:23:38;41.47;;;38.03;;
14874;SDS011;7529;48.170;17.138;2022-12-17T15:27:54;45.55;;;41.90;;
14874;SDS011;7529;48.170;17.138;2022-12-17T15:32:06;52.42;;;47.45;;
14874;SDS011;7529;48.170;17.138;2022-12-17T15:36:21;45.22;;;41.60;;
14874;SDS011;7529;48.170;17.138;2022-12-17T15:40:34;47.00;;;43.35;;
14874;SDS011;7529;48.170;17.138;2022-12-17T15:44:47;44.88;;;41.45;;
14874;SDS011;7529;48.170;17.138;2022-12-17T15:48:58;47.28;;;43.53;;
14874;SDS011;7529;48.170;17.138;2022-12-17T15:53:10;48.28;;;44.50;;
14874;SDS011;7529;48.170;17.138;2022-12-17T15:57:22;55.70;;;51.63;;
14874;SDS011;7529;48.170;17.138;2022-12-17T16:01:34;51.30;;;47.28;;
14874;SDS011;7529;48.170;17.138;2022-12-17T16:05:46;53.28;;;48.72;;
14874;SDS011;7529;48.170;17.138;2022-12-17T16:09:58;55.05;;;50.97;;
14874;SDS011;7529;48.170;17.138;2022-12-17T16:14:10;59.90;;;55.42;;
14874;SDS011;7529;48.170;17.138;2022-12-17T16:18:22;58.35;;;53.40;;
14874;SDS011;7529;48.170;17.138;2022-12-17T16:22:33;71.22;;;65.82;;
14874;SDS011;7529;48.170;17.138;2022-12-17T16:26:46;59.20;;;54.63;;
14874;SDS011;7529;48.170;17.138;2022-12-17T16:31:02;63.40;;;58.67;;
14874;SDS011;7529;48.170;17.138;2022-12-17T16:35:15;62.05;;;57.45;;
14874;SDS011;7529;48.170;17.138;2022-12-17T16:39:27;69.70;;;64.88;;
14874;SDS011;7529;48.170;17.138;2022-12-17T16:43:38;71.95;;;67.30;;
14874;SDS011;7529;48.170;17.138;2022-12-17T16:47:50;73.60;;;68.57;;
14874;SDS011;7529;48.170;17.138;2022-12-17T16:52:02;86.55;;;81.22;;
14874;SDS011;7529;48.170;17.138;2022-12-17T16:56:18;91.57;;;85.95;;
14874;SDS011;7529;48.170;17.138;2022-12-17T17:00:32;98.68;;;92.45;;
14874;SDS011;7529;48.170;17.138;2022-12-17T17:04:45;107.25;;;100.70;;
14874;SDS011;7529;48.170;17.138;2022-12-17T17:08:56;80.00;;;74.90;;
14874;SDS011;7529;48.170;17.138;2022-12-17T17:13:11;95.75;;;89.00;;
14874;SDS011;7529;48.170;17.138;2022-12-17T17:17:23;112.30;;;105.82;;
14874;SDS011;7529;48.170;17.138;2022-12-17T17:21:36;107.95;;;101.78;;
14874;SDS011;7529;48.170;17.138;2022-12-17T17:25:49;103.97;;;97.63;;
14874;SDS011;7529;48.170;17.138;2022-12-17T17:30:01;124.00;;;117.10;;
14874;SDS011;7529;48.170;17.138;2022-12-17T17:34:13;119.07;;;112.38;;
14874;SDS011;7529;48.170;17.138;2022-12-17T17:38:25;124.38;;;117.50;;
14874;SDS011;7529;48.170;17.138;2022-12-17T17:42:37;120.43;;;113.30;;
14874;SDS011;7529;48.170;17.138;2022-12-17T17:46:48;117.63;;;110.90;;
14874;SDS011;7529;48.170;17.138;2022-12-17T17:51:02;110.72;;;104.07;;
14874;SDS011;7529;48.170;17.138;2022-12-17T17:55:15;97.47;;;91.53;;
14874;SDS011;7529;48.170;17.138;2022-12-17T17:59:26;90.32;;;85.00;;
14874;SDS011;7529;48.170;17.138;2022-12-17T18:03:38;107.15;;;100.53;;
14874;SDS011;7529;48.170;17.138;2022-12-17T18:07:50;146.85;;;138.43;;
14874;SDS011;7529;48.170;17.138;2022-12-17T18:12:02;114.82;;;108.10;;
14874;SDS011;7529;48.170;17.138;2022-12-17T18:16:46;131.18;;;123.68;;
14874;SDS011;7529;48.170;17.138;2022-12-17T18:21:05;116.25;;;109.13;;
14874;SDS011;7529;48.170;17.138;2022-12-17T18:25:18;107.40;;;101.25;;
14874;SDS011;7529;48.170;17.138;2022-12-17T18:29:29;114.45;;;107.55;;
14874;SDS011;7529;48.170;17.138;2022-12-17T18:33:42;80.70;;;75.53;;
14874;SDS011;7529;48.170;17.138;2022-12-17T18:37:55;123.75;;;116.20;;
14874;SDS011;7529;48.170;17.138;2022-12-17T18:42:07;92.50;;;86.20;;
14874;SDS011;7529;48.170;17.138;2022-12-17T18:46:37;116.65;;;110.05;;
14874;SDS011;7529;48.170;17.138;2022-12-17T18:50:49;120.15;;;113.03;;
14874;SDS011;7529;48.170;17.138;2022-12-17T18:55:01;87.57;;;82.30;;
14874;SDS011;7529;48.170;17.138;2022-12-17T18:59:13;149.38;;;140.80;;
14874;SDS011;7529;48.170;17.138;2022-12-17T19:03:26;135.40;;;127.85;;
14874;SDS011;7529;48.170;17.138;2022-12-17T19:07:38;117.93;;;111.03;;
14874;SDS011;7529;48.170;17.138;2022-12-17T19:11:50;139.20;;;131.25;;
14874;SDS011;7529;48.170;17.138;2022-12-17T19:20:17;150.20;;;141.80;;
14874;SDS011;7529;48.170;17.138;2022-12-17T19:24:29;121.82;;;114.72;;
14874;SDS011;7529;48.170;17.138;2022-12-17T19:28:41;147.35;;;139.23;;
14874;SDS011;7529;48.170;17.138;2022-12-17T19:32:54;108.13;;;102.40;;
14874;SDS011;7529;48.170;17.138;2022-12-17T19:37:05;170.88;;;161.27;;
14874;SDS011;7529;48.170;17.138;2022-12-17T19:41:17;201.75;;;191.32;;
14874;SDS011;7529;48.170;17.138;2022-12-17T19:45:30;180.35;;;170.82;;
14874;SDS011;7529;48.170;17.138;2022-12-17T19:49:41;216.23;;;205.43;;
14874;SDS011;7529;48.170;17.138;2022-12-17T19:53:53;233.60;;;221.73;;
14874;SDS011;7529;48.170;17.138;2022-12-17T19:58:05;177.43;;;167.77;;
14874;SDS011;7529;48.170;17.138;2022-12-17T20:02:16;187.07;;;177.43;;
14874;SDS011;7529;48.170;17.138;2022-12-17T20:06:30;244.65;;;232.40;;
14874;SDS011;7529;48.170;17.138;2022-12-17T20:10:42;175.20;;;166.20;;
14874;SDS011;7529;48.170;17.138;2022-12-17T20:14:53;189.88;;;180.18;;
14874;SDS011;7529;48.170;17.138;2022-12-17T20:19:09;190.20;;;180.38;;
14874;SDS011;7529;48.170;17.138;2022-12-17T20:23:22;185.15;;;175.70;;
14874;SDS011;7529;48.170;17.138;2022-12-17T20:27:34;193.65;;;183.98;;
14874;SDS011;7529;48.170;17.138;2022-12-17T20:31:45;165.52;;;156.60;;
14874;SDS011;7529;48.170;17.138;2022-12-17T20:36:04;91.68;;;86.35;;
14874;SDS011;7529;48.170;17.138;2022-12-17T20:40:17;129.73;;;122.63;;
14874;SDS011;7529;48.170;17.138;2022-12-17T20:44:28;129.93;;;123.07;;
14874;SDS011;7529;48.170;17.138;2022-12-17T20:48:40;178.73;;;169.50;;
14874;SDS011;7529;48.170;17.138;2022-12-17T20:52:52;200.55;;;190.30;;
14874;SDS011;7529;48.170;17.138;2022-12-17T20:57:04;201.60;;;191.32;;
14874;SDS011;7529;48.170;17.138;2022-12-17T21:01:23;139.77;;;132.07;;
14874;SDS011;7529;48.170;17.138;2022-12-17T21:05:35;157.10;;;148.77;;
14874;SDS011;7529;48.170;17.138;2022-12-17T21:09:50;146.40;;;138.95;;
14874;SDS011;7529;48.170;17.138;2022-12-17T21:14:03;92.60;;;87.55;;
14874;SDS011;7529;48.170;17.138;2022-12-17T21:18:16;101.13;;;95.88;;
14874;SDS011;7529;48.170;17.138;2022-12-17T21:22:28;92.45;;;87.03;;
14874;SDS011;7529;48.170;17.138;2022-12-17T21:26:41;123.53;;;116.93;;
14874;SDS011;7529;48.170;17.138;2022-12-17T21:30:53;115.50;;;109.50;;
14874;SDS011;7529;48.170;17.138;2022-12-17T21:35:05;144.20;;;136.32;;
14874;SDS011;7529;48.170;17.138;2022-12-17T21:39:17;140.82;;;133.23;;
14874;SDS011;7529;48.170;17.138;2022-12-17T21:43:29;89.63;;;84.38;;
14874;SDS011;7529;48.170;17.138;2022-12-17T21:47:41;102.88;;;97.15;;
14874;SDS011;7529;48.170;17.138;2022-12-17T21:51:52;136.40;;;129.35;;
14874;SDS011;7529;48.170;17.138;2022-12-17T21:56:05;106.72;;;100.45;;
14874;SDS011;7529;48.170;17.138;2022-12-17T22:00:18;123.40;;;117.10;;
14874;SDS011;7529;48.170;17.138;2022-12-17T22:04:29;85.60;;;80.68;;
14874;SDS011;7529;48.170;17.138;2022-12-17T22:08:42;94.15;;;88.60;;
14874;SDS011;7529;48.170;17.138;2022-12-17T22:12:54;113.85;;;107.85;;
14874;SDS011;7529;48.170;17.138;2022-12-17T22:17:24;104.78;;;99.05;;
14874;SDS011;7529;48.170;17.138;2022-12-17T22:21:37;136.30;;;129.18;;
14874;SDS011;7529;48.170;17.138;2022-12-17T22:25:49;117.72;;;111.25;;
14874;SDS011;7529;48.170;17.138;2022-12-17T22:30:00;167.98;;;159.65;;
14874;SDS011;7529;48.170;17.138;2022-12-17T22:34:31;187.35;;;178.10;;
14874;SDS011;7529;48.170;17.138;2022-12-17T22:38:42;145.57;;;138.20;;
14874;SDS011;7529;48.170;17.138;2022-12-17T22:42:54;172.88;;;164.32;;
14874;SDS011;7529;48.170;17.138;2022-12-17T22:47:24;222.77;;;212.07;;
14874;SDS011;7529;48.170;17.138;2022-12-17T22:51:35;157.10;;;148.98;;
14874;SDS011;7529;48.170;17.138;2022-12-17T22:55:47;256.60;;;244.57;;
14874;SDS011;7529;48.170;17.138;2022-12-17T22:59:59;283.67;;;270.20;;
14874;SDS011;7529;48.170;17.138;2022-12-17T23:04:14;267.27;;;254.65;;
14874;SDS011;7529;48.170;17.138;2022-12-17T23:08:26;245.32;;;233.63;;
14874;SDS011;7529;48.170;17.138;2022-12-17T23:12:38;195.80;;;186.38;;
14874;SDS011;7529;48.170;17.138;2022-12-17T23:17:02;261.98;;;249.45;;
14874;SDS011;7529;48.170;17.138;2022-12-17T23:21:18;250.75;;;238.57;;
14874;SDS011;7529;48.170;17.138;2022-12-17T23:25:31;216.25;;;205.90;;
14874;SDS011;7529;48.170;17.138;2022-12-17T23:29:43;231.65;;;220.65;;
14874;SDS011;7529;48.170;17.138;2022-12-17T23:33:55;257.40;;;245.23;;
14874;SDS011;7529;48.170;17.138;2022-12-17T23:38:06;313.70;;;298.80;;
14874;SDS011;7529;48.170;17.138;2022-12-17T23:42:18;333.40;;;317.38;;
14874;SDS011;7529;48.170;17.138;2022-12-17T23:46:29;225.75;;;214.98;;
14874;SDS011;7529;48.170;17.138;2022-12-17T23:50:41;381.83;;;362.83;;
14874;SDS011;7529;48.170;17.138;2022-12-17T23:54:53;293.70;;;279.60;;
14874;SDS011;7529;48.170;17.138;2022-12-17T23:59:04;319.27;;;304.00;;
